KICT/ICT METAR and TAF weather

Enter ICAO airport designator
Station Type Date Time Source
KICT METAR 2022/05/25 01:24 UTC NOAA

KICT 250124Z 23009KT 10SM BKN011 OVC018 14/13 A2970 RMK AO2 T01440128


Station Type Date Time Source
KICT Decoded METAR 2022/05/25 01:24 UTC NOAA

WICHITA MID-CONTINENT AIRPORT , KS, United States (KICT) 37-39N 97-26W 408M
May 24, 2022 - 09:24 PM EDT / 2022.05.25 0124 UTC
Wind: from the SW (230 degrees) at 10 MPH (9 KT):0
Visibility: 10 mile(s):0
Sky conditions: overcast
Temperature: 57.9 F (14.4 C)
Dew Point: 55.0 F (12.8 C)
Relative Humidity: 90%
Pressure (altimeter): 29.7 in. Hg (1005 hPa)
ob: KICT 250124Z 23009KT 10SM BKN011 OVC018 14/13 A2970 RMK AO2 T01440128
cycle: 1

Station Type Date Time Source
KICT TAF 2022/05/24 22:39 UTC NOAA

TAF
AMD KICT 242137Z 2422/2518 18012KT P6SM VCSH FEW017 SCT024 OVC029
FM250100 20014KT P6SM VCSH OVC009
FM251200 34014G20KT P6SM VCSH OVC009

Example: see airport list